sensor_id;sensor_type;location;lat;lon;timestamp;P1;durP1;ratioP1;P2;durP2;ratioP2
12314;SDS011;23886;46.614;14.276;2022-12-29T00:01:40;8.37;;;7.57;;
12314;SDS011;23886;46.614;14.276;2022-12-29T00:04:10;8.43;;;7.53;;
12314;SDS011;23886;46.614;14.276;2022-12-29T00:06:39;8.47;;;7.60;;
12314;SDS011;23886;46.614;14.276;2022-12-29T00:09:06;8.83;;;7.67;;
12314;SDS011;23886;46.614;14.276;2022-12-29T00:11:33;9.40;;;8.40;;
12314;SDS011;23886;46.614;14.276;2022-12-29T00:14:00;9.57;;;8.10;;
12314;SDS011;23886;46.614;14.276;2022-12-29T00:16:44;8.73;;;7.83;;
12314;SDS011;23886;46.614;14.276;2022-12-29T00:19:13;9.53;;;7.97;;
12314;SDS011;23886;46.614;14.276;2022-12-29T00:21:54;9.23;;;8.27;;
12314;SDS011;23886;46.614;14.276;2022-12-29T00:24:38;9.20;;;8.30;;
12314;SDS011;23886;46.614;14.276;2022-12-29T00:27:22;10.03;;;8.27;;
12314;SDS011;23886;46.614;14.276;2022-12-29T00:30:08;9.63;;;8.50;;
12314;SDS011;23886;46.614;14.276;2022-12-29T00:32:53;9.20;;;8.13;;
12314;SDS011;23886;46.614;14.276;2022-12-29T00:35:43;9.80;;;8.60;;
12314;SDS011;23886;46.614;14.276;2022-12-29T00:38:12;9.57;;;8.57;;
12314;SDS011;23886;46.614;14.276;2022-12-29T00:40:57;10.30;;;8.37;;
12314;SDS011;23886;46.614;14.276;2022-12-29T00:43:42;9.87;;;8.43;;
12314;SDS011;23886;46.614;14.276;2022-12-29T00:46:26;12.33;;;8.37;;
12314;SDS011;23886;46.614;14.276;2022-12-29T00:48:53;9.50;;;8.50;;
12314;SDS011;23886;46.614;14.276;2022-12-29T00:51:39;13.27;;;8.77;;
12314;SDS011;23886;46.614;14.276;2022-12-29T00:54:06;9.07;;;8.17;;
12314;SDS011;23886;46.614;14.276;2022-12-29T00:56:33;11.37;;;9.27;;
12314;SDS011;23886;46.614;14.276;2022-12-29T00:59:00;10.80;;;9.67;;
12314;SDS011;23886;46.614;14.276;2022-12-29T01:01:27;11.47;;;10.27;;
12314;SDS011;23886;46.614;14.276;2022-12-29T01:03:54;11.40;;;9.13;;
12314;SDS011;23886;46.614;14.276;2022-12-29T01:06:22;10.63;;;9.33;;
12314;SDS011;23886;46.614;14.276;2022-12-29T01:08:50;9.97;;;8.97;;
12314;SDS011;23886;46.614;14.276;2022-12-29T01:11:31;11.23;;;9.20;;
12314;SDS011;23886;46.614;14.276;2022-12-29T01:13:58;10.33;;;9.30;;
12314;SDS011;23886;46.614;14.276;2022-12-29T01:16:25;10.67;;;9.57;;
12314;SDS011;23886;46.614;14.276;2022-12-29T01:18:52;10.37;;;9.27;;
12314;SDS011;23886;46.614;14.276;2022-12-29T01:21:19;9.73;;;8.73;;
12314;SDS011;23886;46.614;14.276;2022-12-29T01:23:46;11.13;;;9.93;;
12314;SDS011;23886;46.614;14.276;2022-12-29T01:26:15;10.53;;;9.17;;
12314;SDS011;23886;46.614;14.276;2022-12-29T01:28:43;10.73;;;9.63;;
12314;SDS011;23886;46.614;14.276;2022-12-29T01:31:11;10.77;;;9.37;;
12314;SDS011;23886;46.614;14.276;2022-12-29T01:33:39;10.33;;;9.33;;
12314;SDS011;23886;46.614;14.276;2022-12-29T01:36:08;10.53;;;9.43;;
12314;SDS011;23886;46.614;14.276;2022-12-29T01:38:36;10.30;;;9.20;;
12314;SDS011;23886;46.614;14.276;2022-12-29T01:41:05;10.93;;;9.83;;
12314;SDS011;23886;46.614;14.276;2022-12-29T01:43:42;10.50;;;9.40;;
12314;SDS011;23886;46.614;14.276;2022-12-29T01:46:19;10.50;;;9.40;;
12314;SDS011;23886;46.614;14.276;2022-12-29T01:48:51;10.97;;;9.50;;
12314;SDS011;23886;46.614;14.276;2022-12-29T01:51:21;10.73;;;9.63;;
12314;SDS011;23886;46.614;14.276;2022-12-29T01:53:51;10.37;;;9.37;;
12314;SDS011;23886;46.614;14.276;2022-12-29T01:56:19;10.50;;;9.40;;
12314;SDS011;23886;46.614;14.276;2022-12-29T01:58:50;9.90;;;8.90;;
12314;SDS011;23886;46.614;14.276;2022-12-29T02:01:21;11.03;;;9.93;;
12314;SDS011;23886;46.614;14.276;2022-12-29T02:03:48;9.87;;;8.87;;
12314;SDS011;23886;46.614;14.276;2022-12-29T02:06:18;10.77;;;9.40;;
12314;SDS011;23886;46.614;14.276;2022-12-29T02:08:49;10.30;;;9.20;;
12314;SDS011;23886;46.614;14.276;2022-12-29T02:11:19;9.83;;;8.83;;
12314;SDS011;23886;46.614;14.276;2022-12-29T02:13:49;9.80;;;8.80;;
12314;SDS011;23886;46.614;14.276;2022-12-29T02:16:29;9.17;;;8.27;;
12314;SDS011;23886;46.614;14.276;2022-12-29T02:19:14;9.80;;;8.80;;
12314;SDS011;23886;46.614;14.276;2022-12-29T02:22:08;9.93;;;8.77;;
12314;SDS011;23886;46.614;14.276;2022-12-29T02:27:50;10.07;;;8.57;;
12314;SDS011;23886;46.614;14.276;2022-12-29T02:33:19;9.27;;;8.30;;
12314;SDS011;23886;46.614;14.276;2022-12-29T02:35:53;9.53;;;8.53;;
12314;SDS011;23886;46.614;14.276;2022-12-29T02:38:44;9.30;;;8.40;;
12314;SDS011;23886;46.614;14.276;2022-12-29T02:41:18;9.80;;;8.80;;
12314;SDS011;23886;46.614;14.276;2022-12-29T02:43:49;12.13;;;8.80;;
12314;SDS011;23886;46.614;14.276;2022-12-29T02:46:21;9.97;;;8.80;;
12314;SDS011;23886;46.614;14.276;2022-12-29T02:48:54;12.60;;;8.77;;
12314;SDS011;23886;46.614;14.276;2022-12-29T02:51:29;9.63;;;8.63;;
12314;SDS011;23886;46.614;14.276;2022-12-29T02:53:59;9.73;;;8.43;;
12314;SDS011;23886;46.614;14.276;2022-12-29T02:56:43;10.70;;;8.87;;
12314;SDS011;23886;46.614;14.276;2022-12-29T02:59:10;11.13;;;9.13;;
12314;SDS011;23886;46.614;14.276;2022-12-29T03:01:45;9.53;;;8.40;;
12314;SDS011;23886;46.614;14.276;2022-12-29T03:04:47;8.63;;;7.73;;
12314;SDS011;23886;46.614;14.276;2022-12-29T03:07:36;9.03;;;8.13;;
12314;SDS011;23886;46.614;14.276;2022-12-29T03:10:13;9.53;;;8.47;;
12314;SDS011;23886;46.614;14.276;2022-12-29T03:12:46;10.27;;;9.17;;
12314;SDS011;23886;46.614;14.276;2022-12-29T03:15:36;10.00;;;8.77;;
12314;SDS011;23886;46.614;14.276;2022-12-29T03:18:32;10.40;;;9.00;;
12314;SDS011;23886;46.614;14.276;2022-12-29T03:21:08;9.57;;;8.57;;
12314;SDS011;23886;46.614;14.276;2022-12-29T03:23:41;10.10;;;9.10;;
12314;SDS011;23886;46.614;14.276;2022-12-29T03:26:12;10.03;;;8.70;;
12314;SDS011;23886;46.614;14.276;2022-12-29T03:28:44;10.50;;;9.23;;
12314;SDS011;23886;46.614;14.276;2022-12-29T03:31:15;9.83;;;8.87;;
12314;SDS011;23886;46.614;14.276;2022-12-29T03:33:44;9.77;;;8.77;;
12314;SDS011;23886;46.614;14.276;2022-12-29T03:36:15;10.03;;;9.03;;
12314;SDS011;23886;46.614;14.276;2022-12-29T03:38:50;9.70;;;8.70;;
12314;SDS011;23886;46.614;14.276;2022-12-29T03:41:22;10.63;;;9.23;;
12314;SDS011;23886;46.614;14.276;2022-12-29T03:43:54;10.57;;;9.47;;
12314;SDS011;23886;46.614;14.276;2022-12-29T03:46:21;10.57;;;8.73;;
12314;SDS011;23886;46.614;14.276;2022-12-29T03:48:49;9.90;;;8.90;;
12314;SDS011;23886;46.614;14.276;2022-12-29T03:51:17;9.97;;;8.97;;
12314;SDS011;23886;46.614;14.276;2022-12-29T03:53:44;10.00;;;9.00;;
12314;SDS011;23886;46.614;14.276;2022-12-29T03:56:11;10.03;;;9.03;;
12314;SDS011;23886;46.614;14.276;2022-12-29T03:58:37;11.00;;;9.90;;
12314;SDS011;23886;46.614;14.276;2022-12-29T04:01:04;10.47;;;8.97;;
12314;SDS011;23886;46.614;14.276;2022-12-29T04:03:31;9.00;;;8.10;;
12314;SDS011;23886;46.614;14.276;2022-12-29T04:06:00;10.40;;;9.30;;
12314;SDS011;23886;46.614;14.276;2022-12-29T04:08:27;13.37;;;9.30;;
12314;SDS011;23886;46.614;14.276;2022-12-29T04:10:54;10.43;;;9.33;;
12314;SDS011;23886;46.614;14.276;2022-12-29T04:13:21;11.30;;;9.77;;
12314;SDS011;23886;46.614;14.276;2022-12-29T04:15:48;10.27;;;9.20;;
12314;SDS011;23886;46.614;14.276;2022-12-29T04:18:15;10.20;;;9.20;;
12314;SDS011;23886;46.614;14.276;2022-12-29T04:20:42;11.93;;;10.13;;
12314;SDS011;23886;46.614;14.276;2022-12-29T04:23:27;10.13;;;9.00;;
12314;SDS011;23886;46.614;14.276;2022-12-29T04:25:54;9.43;;;8.43;;
12314;SDS011;23886;46.614;14.276;2022-12-29T04:28:21;9.23;;;8.33;;
12314;SDS011;23886;46.614;14.276;2022-12-29T04:30:49;9.27;;;8.27;;
12314;SDS011;23886;46.614;14.276;2022-12-29T04:33:16;7.60;;;6.90;;
12314;SDS011;23886;46.614;14.276;2022-12-29T04:35:43;8.53;;;7.73;;
12314;SDS011;23886;46.614;14.276;2022-12-29T04:38:11;8.17;;;7.37;;
12314;SDS011;23886;46.614;14.276;2022-12-29T04:40:40;12.30;;;10.60;;
12314;SDS011;23886;46.614;14.276;2022-12-29T04:43:07;10.30;;;9.00;;
12314;SDS011;23886;46.614;14.276;2022-12-29T04:45:35;9.33;;;8.37;;
12314;SDS011;23886;46.614;14.276;2022-12-29T04:48:02;9.20;;;8.27;;
12314;SDS011;23886;46.614;14.276;2022-12-29T04:50:29;9.07;;;8.17;;
12314;SDS011;23886;46.614;14.276;2022-12-29T04:52:56;11.30;;;8.50;;
12314;SDS011;23886;46.614;14.276;2022-12-29T04:55:23;9.33;;;8.20;;
12314;SDS011;23886;46.614;14.276;2022-12-29T04:57:51;9.37;;;8.47;;
12314;SDS011;23886;46.614;14.276;2022-12-29T05:00:19;9.13;;;8.23;;
12314;SDS011;23886;46.614;14.276;2022-12-29T05:02:46;9.00;;;8.10;;
12314;SDS011;23886;46.614;14.276;2022-12-29T05:05:13;8.33;;;7.50;;
12314;SDS011;23886;46.614;14.276;2022-12-29T05:07:40;7.97;;;7.17;;
12314;SDS011;23886;46.614;14.276;2022-12-29T05:10:07;8.23;;;7.43;;
12314;SDS011;23886;46.614;14.276;2022-12-29T05:12:35;8.10;;;7.40;;
12314;SDS011;23886;46.614;14.276;2022-12-29T05:15:06;8.30;;;7.50;;
12314;SDS011;23886;46.614;14.276;2022-12-29T05:17:35;8.57;;;7.70;;
12314;SDS011;23886;46.614;14.276;2022-12-29T05:20:02;7.97;;;7.17;;
12314;SDS011;23886;46.614;14.276;2022-12-29T05:22:30;8.43;;;7.63;;
12314;SDS011;23886;46.614;14.276;2022-12-29T05:24:57;7.80;;;7.07;;
12314;SDS011;23886;46.614;14.276;2022-12-29T05:27:24;8.60;;;7.80;;
12314;SDS011;23886;46.614;14.276;2022-12-29T05:29:51;7.57;;;6.77;;
12314;SDS011;23886;46.614;14.276;2022-12-29T05:32:19;8.60;;;7.27;;
12314;SDS011;23886;46.614;14.276;2022-12-29T05:34:46;9.77;;;7.63;;
12314;SDS011;23886;46.614;14.276;2022-12-29T05:37:13;7.67;;;6.93;;
12314;SDS011;23886;46.614;14.276;2022-12-29T05:39:40;8.83;;;7.93;;
12314;SDS011;23886;46.614;14.276;2022-12-29T05:42:07;8.73;;;7.83;;
12314;SDS011;23886;46.614;14.276;2022-12-29T05:44:34;9.07;;;8.17;;
12314;SDS011;23886;46.614;14.276;2022-12-29T05:47:01;8.27;;;7.40;;
12314;SDS011;23886;46.614;14.276;2022-12-29T05:49:30;7.93;;;7.13;;
12314;SDS011;23886;46.614;14.276;2022-12-29T05:51:57;8.90;;;7.87;;
12314;SDS011;23886;46.614;14.276;2022-12-29T05:54:24;8.27;;;7.47;;
12314;SDS011;23886;46.614;14.276;2022-12-29T05:56:51;14.27;;;8.27;;
12314;SDS011;23886;46.614;14.276;2022-12-29T05:59:18;30.23;;;9.77;;
12314;SDS011;23886;46.614;14.276;2022-12-29T06:01:45;10.30;;;9.00;;
12314;SDS011;23886;46.614;14.276;2022-12-29T06:04:11;9.93;;;8.83;;
12314;SDS011;23886;46.614;14.276;2022-12-29T06:06:40;22.70;;;11.63;;
12314;SDS011;23886;46.614;14.276;2022-12-29T06:09:09;11.97;;;10.77;;
12314;SDS011;23886;46.614;14.276;2022-12-29T06:11:36;12.10;;;10.97;;
12314;SDS011;23886;46.614;14.276;2022-12-29T06:14:03;18.20;;;12.13;;
12314;SDS011;23886;46.614;14.276;2022-12-29T06:16:30;13.47;;;11.33;;
12314;SDS011;23886;46.614;14.276;2022-12-29T06:18:57;11.13;;;9.90;;
12314;SDS011;23886;46.614;14.276;2022-12-29T06:21:24;13.33;;;10.93;;
12314;SDS011;23886;46.614;14.276;2022-12-29T06:23:52;11.60;;;10.20;;
12314;SDS011;23886;46.614;14.276;2022-12-29T06:26:19;11.47;;;10.10;;
12314;SDS011;23886;46.614;14.276;2022-12-29T06:28:46;12.60;;;10.70;;
12314;SDS011;23886;46.614;14.276;2022-12-29T06:31:13;15.07;;;10.23;;
12314;SDS011;23886;46.614;14.276;2022-12-29T06:33:40;16.37;;;9.60;;
12314;SDS011;23886;46.614;14.276;2022-12-29T06:36:07;15.33;;;10.17;;
12314;SDS011;23886;46.614;14.276;2022-12-29T06:38:34;11.33;;;10.13;;
12314;SDS011;23886;46.614;14.276;2022-12-29T06:41:03;20.63;;;10.37;;
12314;SDS011;23886;46.614;14.276;2022-12-29T06:43:30;14.23;;;11.73;;
12314;SDS011;23886;46.614;14.276;2022-12-29T06:45:57;17.33;;;15.27;;
12314;SDS011;23886;46.614;14.276;2022-12-29T06:48:24;14.73;;;13.13;;
12314;SDS011;23886;46.614;14.276;2022-12-29T06:50:51;17.93;;;11.77;;
12314;SDS011;23886;46.614;14.276;2022-12-29T06:53:18;12.43;;;10.77;;
12314;SDS011;23886;46.614;14.276;2022-12-29T06:55:45;20.77;;;13.43;;
12314;SDS011;23886;46.614;14.276;2022-12-29T06:58:14;16.10;;;12.77;;
12314;SDS011;23886;46.614;14.276;2022-12-29T07:00:41;15.87;;;13.80;;
12314;SDS011;23886;46.614;14.276;2022-12-29T07:03:08;14.97;;;13.57;;
12314;SDS011;23886;46.614;14.276;2022-12-29T07:05:35;12.93;;;11.07;;
12314;SDS011;23886;46.614;14.276;2022-12-29T07:08:02;11.87;;;10.67;;
12314;SDS011;23886;46.614;14.276;2022-12-29T07:10:29;13.40;;;12.00;;
12314;SDS011;23886;46.614;14.276;2022-12-29T07:12:56;13.00;;;11.60;;
12314;SDS011;23886;46.614;14.276;2022-12-29T07:15:24;15.23;;;13.03;;
12314;SDS011;23886;46.614;14.276;2022-12-29T07:17:51;12.20;;;10.50;;
12314;SDS011;23886;46.614;14.276;2022-12-29T07:20:18;11.57;;;10.03;;
12314;SDS011;23886;46.614;14.276;2022-12-29T07:22:45;17.03;;;15.27;;
12314;SDS011;23886;46.614;14.276;2022-12-29T07:25:12;16.17;;;14.47;;
12314;SDS011;23886;46.614;14.276;2022-12-29T07:27:39;11.83;;;10.23;;
12314;SDS011;23886;46.614;14.276;2022-12-29T07:30:07;10.87;;;9.60;;
12314;SDS011;23886;46.614;14.276;2022-12-29T07:32:36;12.30;;;10.67;;
12314;SDS011;23886;46.614;14.276;2022-12-29T07:35:03;17.90;;;15.17;;
12314;SDS011;23886;46.614;14.276;2022-12-29T07:37:30;18.10;;;16.13;;
12314;SDS011;23886;46.614;14.276;2022-12-29T07:39:57;24.53;;;21.50;;
12314;SDS011;23886;46.614;14.276;2022-12-29T07:42:24;15.67;;;14.13;;
12314;SDS011;23886;46.614;14.276;2022-12-29T07:44:51;13.70;;;11.93;;
12314;SDS011;23886;46.614;14.276;2022-12-29T07:47:18;12.17;;;10.97;;
12314;SDS011;23886;46.614;14.276;2022-12-29T07:49:47;11.03;;;9.93;;
12314;SDS011;23886;46.614;14.276;2022-12-29T07:52:14;11.87;;;10.03;;
12314;SDS011;23886;46.614;14.276;2022-12-29T07:54:40;11.13;;;10.03;;
12314;SDS011;23886;46.614;14.276;2022-12-29T07:57:07;11.30;;;10.10;;
12314;SDS011;23886;46.614;14.276;2022-12-29T07:59:34;11.37;;;10.17;;
12314;SDS011;23886;46.614;14.276;2022-12-29T08:02:01;12.23;;;10.67;;
12314;SDS011;23886;46.614;14.276;2022-12-29T08:04:28;10.60;;;9.50;;
12314;SDS011;23886;46.614;14.276;2022-12-29T08:06:57;11.33;;;9.90;;
12314;SDS011;23886;46.614;14.276;2022-12-29T08:09:25;11.13;;;9.80;;
12314;SDS011;23886;46.614;14.276;2022-12-29T08:11:53;10.40;;;9.20;;
12314;SDS011;23886;46.614;14.276;2022-12-29T08:14:20;11.60;;;10.10;;
12314;SDS011;23886;46.614;14.276;2022-12-29T08:16:47;10.80;;;9.53;;
12314;SDS011;23886;46.614;14.276;2022-12-29T08:19:14;11.03;;;9.53;;
12314;SDS011;23886;46.614;14.276;2022-12-29T08:21:41;11.30;;;10.00;;
12314;SDS011;23886;46.614;14.276;2022-12-29T08:24:09;11.60;;;10.40;;
12314;SDS011;23886;46.614;14.276;2022-12-29T08:26:36;11.50;;;10.17;;
12314;SDS011;23886;46.614;14.276;2022-12-29T08:29:03;12.87;;;10.90;;
12314;SDS011;23886;46.614;14.276;2022-12-29T08:31:30;11.27;;;10.07;;
12314;SDS011;23886;46.614;14.276;2022-12-29T08:33:57;11.37;;;10.17;;
12314;SDS011;23886;46.614;14.276;2022-12-29T08:36:26;11.43;;;10.23;;
12314;SDS011;23886;46.614;14.276;2022-12-29T08:38:53;12.97;;;11.57;;
12314;SDS011;23886;46.614;14.276;2022-12-29T08:41:21;15.80;;;13.97;;
12314;SDS011;23886;46.614;14.276;2022-12-29T08:43:49;12.00;;;9.90;;
12314;SDS011;23886;46.614;14.276;2022-12-29T08:46:16;11.03;;;9.93;;
12314;SDS011;23886;46.614;14.276;2022-12-29T08:48:43;13.37;;;11.80;;
12314;SDS011;23886;46.614;14.276;2022-12-29T08:51:10;12.30;;;10.97;;
12314;SDS011;23886;46.614;14.276;2022-12-29T08:53:37;12.70;;;11.17;;
12314;SDS011;23886;46.614;14.276;2022-12-29T08:56:04;12.93;;;11.53;;
12314;SDS011;23886;46.614;14.276;2022-12-29T08:58:33;12.73;;;11.30;;
12314;SDS011;23886;46.614;14.276;2022-12-29T09:01:00;15.03;;;13.03;;
12314;SDS011;23886;46.614;14.276;2022-12-29T09:03:27;13.13;;;11.70;;
12314;SDS011;23886;46.614;14.276;2022-12-29T09:05:54;14.43;;;12.90;;
12314;SDS011;23886;46.614;14.276;2022-12-29T09:08:21;15.03;;;13.43;;
12314;SDS011;23886;46.614;14.276;2022-12-29T09:10:49;15.53;;;13.30;;
12314;SDS011;23886;46.614;14.276;2022-12-29T09:13:16;15.23;;;13.17;;
12314;SDS011;23886;46.614;14.276;2022-12-29T09:15:45;14.77;;;12.60;;
12314;SDS011;23886;46.614;14.276;2022-12-29T09:18:12;16.77;;;14.57;;
12314;SDS011;23886;46.614;14.276;2022-12-29T09:20:39;13.27;;;11.87;;
12314;SDS011;23886;46.614;14.276;2022-12-29T09:23:06;14.30;;;12.30;;
12314;SDS011;23886;46.614;14.276;2022-12-29T09:25:33;16.17;;;12.53;;
12314;SDS011;23886;46.614;14.276;2022-12-29T09:28:00;14.73;;;12.60;;
12314;SDS011;23886;46.614;14.276;2022-12-29T09:30:32;16.43;;;14.20;;
12314;SDS011;23886;46.614;14.276;2022-12-29T09:33:00;14.90;;;12.97;;
12314;SDS011;23886;46.614;14.276;2022-12-29T09:35:27;15.17;;;13.20;;
12314;SDS011;23886;46.614;14.276;2022-12-29T09:37:54;14.50;;;12.93;;
12314;SDS011;23886;46.614;14.276;2022-12-29T09:40:23;13.97;;;12.50;;
12314;SDS011;23886;46.614;14.276;2022-12-29T09:43:06;15.53;;;13.90;;
12314;SDS011;23886;46.614;14.276;2022-12-29T09:45:44;15.80;;;12.53;;
12314;SDS011;23886;46.614;14.276;2022-12-29T09:48:16;17.00;;;15.00;;
12314;SDS011;23886;46.614;14.276;2022-12-29T09:50:49;18.90;;;16.03;;
12314;SDS011;23886;46.614;14.276;2022-12-29T09:53:20;17.80;;;14.60;;
12314;SDS011;23886;46.614;14.276;2022-12-29T09:55:53;17.70;;;15.00;;
12314;SDS011;23886;46.614;14.276;2022-12-29T09:58:25;18.03;;;14.03;;
12314;SDS011;23886;46.614;14.276;2022-12-29T10:00:58;16.17;;;13.03;;
12314;SDS011;23886;46.614;14.276;2022-12-29T10:03:35;17.20;;;14.07;;
12314;SDS011;23886;46.614;14.276;2022-12-29T10:06:11;16.13;;;13.33;;
12314;SDS011;23886;46.614;14.276;2022-12-29T10:08:44;15.83;;;12.90;;
12314;SDS011;23886;46.614;14.276;2022-12-29T10:11:19;16.77;;;13.33;;
12314;SDS011;23886;46.614;14.276;2022-12-29T10:14:01;18.10;;;13.77;;
12314;SDS011;23886;46.614;14.276;2022-12-29T10:16:38;17.13;;;13.47;;
12314;SDS011;23886;46.614;14.276;2022-12-29T10:19:18;16.80;;;12.77;;
12314;SDS011;23886;46.614;14.276;2022-12-29T10:21:58;17.67;;;13.77;;
12314;SDS011;23886;46.614;14.276;2022-12-29T10:24:37;15.83;;;12.73;;
12314;SDS011;23886;46.614;14.276;2022-12-29T10:27:05;17.33;;;13.53;;
12314;SDS011;23886;46.614;14.276;2022-12-29T10:29:37;16.23;;;13.80;;
12314;SDS011;23886;46.614;14.276;2022-12-29T10:32:10;15.13;;;12.70;;
12314;SDS011;23886;46.614;14.276;2022-12-29T10:34:49;17.73;;;13.70;;
12314;SDS011;23886;46.614;14.276;2022-12-29T10:37:21;19.03;;;13.57;;
12314;SDS011;23886;46.614;14.276;2022-12-29T10:39:56;15.70;;;12.33;;
12314;SDS011;23886;46.614;14.276;2022-12-29T10:42:26;14.70;;;12.33;;
12314;SDS011;23886;46.614;14.276;2022-12-29T10:44:54;15.90;;;12.43;;
12314;SDS011;23886;46.614;14.276;2022-12-29T10:47:22;14.50;;;12.13;;
12314;SDS011;23886;46.614;14.276;2022-12-29T10:49:54;14.07;;;11.50;;
12314;SDS011;23886;46.614;14.276;2022-12-29T10:52:23;13.90;;;11.70;;
12314;SDS011;23886;46.614;14.276;2022-12-29T10:54:54;17.70;;;11.67;;
12314;SDS011;23886;46.614;14.276;2022-12-29T10:57:26;13.50;;;11.23;;
12314;SDS011;23886;46.614;14.276;2022-12-29T10:59:54;14.17;;;11.60;;
12314;SDS011;23886;46.614;14.276;2022-12-29T11:05:23;13.07;;;10.50;;
12314;SDS011;23886;46.614;14.276;2022-12-29T11:07:56;13.37;;;11.47;;
12314;SDS011;23886;46.614;14.276;2022-12-29T11:10:29;12.70;;;11.40;;
12314;SDS011;23886;46.614;14.276;2022-12-29T11:13:02;13.40;;;11.10;;
12314;SDS011;23886;46.614;14.276;2022-12-29T11:15:38;12.73;;;10.60;;
12314;SDS011;23886;46.614;14.276;2022-12-29T11:18:07;13.40;;;11.37;;
12314;SDS011;23886;46.614;14.276;2022-12-29T11:20:47;13.13;;;11.80;;
12314;SDS011;23886;46.614;14.276;2022-12-29T11:23:21;13.10;;;11.20;;
12314;SDS011;23886;46.614;14.276;2022-12-29T11:26:04;14.23;;;12.17;;
12314;SDS011;23886;46.614;14.276;2022-12-29T11:28:33;13.27;;;11.63;;
12314;SDS011;23886;46.614;14.276;2022-12-29T11:31:01;14.03;;;11.50;;
12314;SDS011;23886;46.614;14.276;2022-12-29T11:33:29;12.97;;;11.50;;
12314;SDS011;23886;46.614;14.276;2022-12-29T11:35:58;15.63;;;11.53;;
12314;SDS011;23886;46.614;14.276;2022-12-29T11:38:32;14.27;;;11.87;;
12314;SDS011;23886;46.614;14.276;2022-12-29T11:41:01;13.40;;;11.67;;
12314;SDS011;23886;46.614;14.276;2022-12-29T11:43:30;13.87;;;12.10;;
12314;SDS011;23886;46.614;14.276;2022-12-29T11:45:59;14.63;;;12.67;;
12314;SDS011;23886;46.614;14.276;2022-12-29T11:48:29;14.60;;;13.00;;
12314;SDS011;23886;46.614;14.276;2022-12-29T11:51:00;14.40;;;12.80;;
12314;SDS011;23886;46.614;14.276;2022-12-29T11:53:36;14.17;;;12.40;;
12314;SDS011;23886;46.614;14.276;2022-12-29T11:56:07;14.40;;;12.47;;
12314;SDS011;23886;46.614;14.276;2022-12-29T11:58:37;14.77;;;12.80;;
12314;SDS011;23886;46.614;14.276;2022-12-29T12:01:06;15.40;;;12.20;;
12314;SDS011;23886;46.614;14.276;2022-12-29T12:03:37;14.67;;;12.47;;
12314;SDS011;23886;46.614;14.276;2022-12-29T12:06:12;15.87;;;13.17;;
12314;SDS011;23886;46.614;14.276;2022-12-29T12:08:43;15.43;;;13.73;;
12314;SDS011;23886;46.614;14.276;2022-12-29T12:11:15;14.17;;;12.23;;
12314;SDS011;23886;46.614;14.276;2022-12-29T12:13:47;16.93;;;12.37;;
12314;SDS011;23886;46.614;14.276;2022-12-29T12:16:24;13.50;;;11.97;;
12314;SDS011;23886;46.614;14.276;2022-12-29T12:18:58;14.00;;;11.37;;
12314;SDS011;23886;46.614;14.276;2022-12-29T12:21:31;11.50;;;10.30;;
12314;SDS011;23886;46.614;14.276;2022-12-29T12:24:14;14.03;;;11.77;;
12314;SDS011;23886;46.614;14.276;2022-12-29T12:26:54;17.23;;;11.70;;
12314;SDS011;23886;46.614;14.276;2022-12-29T12:29:25;14.17;;;12.67;;
12314;SDS011;23886;46.614;14.276;2022-12-29T12:32:01;16.73;;;13.23;;
12314;SDS011;23886;46.614;14.276;2022-12-29T12:34:36;14.03;;;12.47;;
12314;SDS011;23886;46.614;14.276;2022-12-29T12:37:18;15.70;;;13.07;;
12314;SDS011;23886;46.614;14.276;2022-12-29T12:43:03;19.20;;;13.50;;
12314;SDS011;23886;46.614;14.276;2022-12-29T12:45:53;16.10;;;12.73;;
12314;SDS011;23886;46.614;14.276;2022-12-29T12:48:35;15.90;;;13.20;;
12314;SDS011;23886;46.614;14.276;2022-12-29T12:51:16;16.90;;;13.33;;
12314;SDS011;23886;46.614;14.276;2022-12-29T12:53:56;17.97;;;13.23;;
12314;SDS011;23886;46.614;14.276;2022-12-29T12:56:40;16.90;;;14.43;;
12314;SDS011;23886;46.614;14.276;2022-12-29T12:59:25;16.10;;;12.90;;
12314;SDS011;23886;46.614;14.276;2022-12-29T13:02:01;14.47;;;12.90;;
12314;SDS011;23886;46.614;14.276;2022-12-29T13:04:41;14.27;;;12.77;;
12314;SDS011;23886;46.614;14.276;2022-12-29T13:07:21;16.93;;;12.43;;
12314;SDS011;23886;46.614;14.276;2022-12-29T13:12:49;15.30;;;12.73;;
12314;SDS011;23886;46.614;14.276;2022-12-29T13:15:26;13.67;;;12.17;;
12314;SDS011;23886;46.614;14.276;2022-12-29T13:18:06;13.07;;;11.40;;
12314;SDS011;23886;46.614;14.276;2022-12-29T13:20:44;12.27;;;10.97;;
12314;SDS011;23886;46.614;14.276;2022-12-29T13:23:17;13.70;;;12.23;;
12314;SDS011;23886;46.614;14.276;2022-12-29T13:25:54;13.93;;;12.43;;
12314;SDS011;23886;46.614;14.276;2022-12-29T13:28:26;14.63;;;13.13;;
12314;SDS011;23886;46.614;14.276;2022-12-29T13:30:59;14.23;;;12.63;;
12314;SDS011;23886;46.614;14.276;2022-12-29T13:33:33;13.83;;;12.40;;
12314;SDS011;23886;46.614;14.276;2022-12-29T13:36:09;14.07;;;12.13;;
12314;SDS011;23886;46.614;14.276;2022-12-29T13:38:45;13.07;;;11.50;;
12314;SDS011;23886;46.614;14.276;2022-12-29T13:41:18;12.33;;;10.87;;
12314;SDS011;23886;46.614;14.276;2022-12-29T13:43:51;12.50;;;10.27;;
12314;SDS011;23886;46.614;14.276;2022-12-29T13:46:21;11.17;;;10.07;;
12314;SDS011;23886;46.614;14.276;2022-12-29T13:48:53;11.10;;;9.93;;
12314;SDS011;23886;46.614;14.276;2022-12-29T13:51:24;12.53;;;11.23;;
12314;SDS011;23886;46.614;14.276;2022-12-29T13:53:59;13.07;;;11.67;;
12314;SDS011;23886;46.614;14.276;2022-12-29T13:56:33;13.73;;;12.43;;
12314;SDS011;23886;46.614;14.276;2022-12-29T13:59:05;13.10;;;11.77;;
12314;SDS011;23886;46.614;14.276;2022-12-29T14:01:41;14.17;;;12.77;;
12314;SDS011;23886;46.614;14.276;2022-12-29T14:04:20;14.73;;;12.70;;
12314;SDS011;23886;46.614;14.276;2022-12-29T14:06:57;13.33;;;11.93;;
12314;SDS011;23886;46.614;14.276;2022-12-29T14:09:38;13.63;;;12.33;;
12314;SDS011;23886;46.614;14.276;2022-12-29T14:15:15;15.27;;;13.03;;
12314;SDS011;23886;46.614;14.276;2022-12-29T14:17:59;13.80;;;12.40;;
12314;SDS011;23886;46.614;14.276;2022-12-29T14:20:30;13.90;;;12.50;;
12314;SDS011;23886;46.614;14.276;2022-12-29T14:22:59;13.60;;;12.20;;
12314;SDS011;23886;46.614;14.276;2022-12-29T14:25:56;12.97;;;11.67;;
12314;SDS011;23886;46.614;14.276;2022-12-29T14:28:27;14.93;;;13.33;;
12314;SDS011;23886;46.614;14.276;2022-12-29T14:30:56;14.67;;;13.07;;
12314;SDS011;23886;46.614;14.276;2022-12-29T14:33:25;14.93;;;13.33;;
12314;SDS011;23886;46.614;14.276;2022-12-29T14:35:54;15.97;;;14.27;;
12314;SDS011;23886;46.614;14.276;2022-12-29T14:38:26;14.90;;;13.40;;
12314;SDS011;23886;46.614;14.276;2022-12-29T14:46:45;16.63;;;14.83;;
12314;SDS011;23886;46.614;14.276;2022-12-29T14:49:16;17.07;;;14.03;;
12314;SDS011;23886;46.614;14.276;2022-12-29T14:51:46;15.50;;;13.77;;
12314;SDS011;23886;46.614;14.276;2022-12-29T14:57:13;16.67;;;14.03;;
12314;SDS011;23886;46.614;14.276;2022-12-29T14:59:54;15.83;;;14.23;;
12314;SDS011;23886;46.614;14.276;2022-12-29T15:02:26;16.67;;;14.80;;
12314;SDS011;23886;46.614;14.276;2022-12-29T15:05:02;18.83;;;15.63;;
12314;SDS011;23886;46.614;14.276;2022-12-29T15:07:29;16.40;;;14.30;;